createdAt,value
2023-02-02T00:00:42.872Z,100633.41
2023-02-02T00:01:47.438Z,100631.69
2023-02-02T00:02:49.187Z,100638.50
2023-02-02T00:03:52.182Z,100632.22
2023-02-02T00:04:53.952Z,100642.09
2023-02-02T00:05:57.644Z,100634.59
2023-02-02T00:07:00.721Z,100630.50
2023-02-02T00:08:02.657Z,100626.75
2023-02-02T00:09:05.470Z,100630.50
2023-02-02T00:10:07.949Z,100637.50
2023-02-02T00:11:12.288Z,100640.22
2023-02-02T00:12:13.951Z,100638.16
2023-02-02T00:13:16.648Z,100634.22
2023-02-02T00:14:18.764Z,100637.50
2023-02-02T00:15:21.697Z,100635.78
2023-02-02T00:16:51.736Z,100637.00
2023-02-02T00:17:53.444Z,100638.38
2023-02-02T00:18:56.884Z,100633.44
2023-02-02T00:19:58.603Z,100640.22
2023-02-02T00:21:01.229Z,100644.13
2023-02-02T00:22:02.972Z,100633.91
2023-02-02T00:23:05.716Z,100629.47
2023-02-02T00:24:08.204Z,100634.22
2023-02-02T00:25:11.332Z,100635.59
2023-02-02T00:26:14.493Z,100637.13
2023-02-02T00:27:17.203Z,100637.66
2023-02-02T00:28:19.124Z,100638.63
2023-02-02T00:29:25.493Z,100633.41
2023-02-02T00:30:27.349Z,100638.16
2023-02-02T00:31:30.072Z,100637.13
2023-02-02T00:32:31.847Z,100635.63
2023-02-02T00:33:34.517Z,100643.09
2023-02-02T00:34:37.182Z,100645.13
2023-02-02T00:35:41.845Z,100640.88
2023-02-02T00:36:45.462Z,100639.34
2023-02-02T00:37:47.295Z,100641.25
2023-02-02T00:38:50.940Z,100636.66
2023-02-02T00:39:52.673Z,100630.84
2023-02-02T00:40:55.357Z,100623.88
2023-02-02T00:41:58.444Z,100640.22
2023-02-02T00:43:01.124Z,100622.88
2023-02-02T00:44:21.168Z,100634.56
2023-02-02T00:45:25.371Z,100624.00
2023-02-02T00:46:27.371Z,100616.84
2023-02-02T00:47:30.055Z,100620.75
2023-02-02T00:48:32.052Z,100612.91
2023-02-02T00:49:34.779Z,100619.56
2023-02-02T00:50:36.852Z,100606.78
2023-02-02T00:51:39.522Z,100611.75
2023-02-02T00:52:41.266Z,100614.78
2023-02-02T00:53:43.909Z,100616.16
2023-02-02T00:54:45.617Z,100609.19
2023-02-02T00:55:48.334Z,100616.50
2023-02-02T00:56:50.048Z,100617.56
2023-02-02T00:57:54.161Z,100618.72
2023-02-02T00:58:56.196Z,100608.69
2023-02-02T00:59:59.502Z,100624.19
2023-02-02T01:01:01.603Z,100628.38
2023-02-02T01:02:04.343Z,100624.50
2023-02-02T01:03:07.071Z,100631.47
2023-02-02T01:04:09.755Z,100628.75
2023-02-02T01:05:11.977Z,100633.19
2023-02-02T01:06:14.769Z,100634.22
2023-02-02T01:07:16.485Z,100648.03
2023-02-02T01:08:19.594Z,100644.56
2023-02-02T01:09:21.510Z,100645.81
2023-02-02T01:10:24.237Z,100634.59
2023-02-02T01:11:25.978Z,100645.13
2023-02-02T01:12:28.656Z,100641.38
2023-02-02T01:13:31.721Z,100646.47
2023-02-02T01:14:34.385Z,100644.31
2023-02-02T01:15:37.133Z,100641.38
2023-02-02T01:16:39.863Z,100645.63
2023-02-02T01:17:41.822Z,100645.81
2023-02-02T01:18:44.573Z,100638.44
2023-02-02T01:19:46.358Z,100637.94
2023-02-02T01:20:49.069Z,100635.75
2023-02-02T01:21:51.260Z,100637.41
2023-02-02T01:22:53.953Z,100641.13
2023-02-02T01:23:55.675Z,100661.19
2023-02-02T01:24:58.316Z,100629.16
2023-02-02T01:26:01.915Z,100648.81
2023-02-02T01:27:04.738Z,100637.94
2023-02-02T01:28:06.421Z,100638.31
2023-02-02T01:29:10.420Z,100639.88
2023-02-02T01:30:12.953Z,100639.63
2023-02-02T01:31:20.939Z,100641.50
2023-02-02T01:32:22.669Z,100657.13
2023-02-02T01:33:26.017Z,100644.56
2023-02-02T01:34:27.692Z,100646.59
2023-02-02T01:35:30.336Z,100646.56
2023-02-02T01:36:33.108Z,100649.44
2023-02-02T01:37:35.811Z,100652.38
2023-02-02T01:38:37.864Z,100667.47
2023-02-02T01:39:40.535Z,100651.97
2023-02-02T01:40:46.303Z,100644.66
2023-02-02T01:41:49.014Z,100639.59
2023-02-02T01:42:50.731Z,100656.97
2023-02-02T01:43:56.595Z,100648.47
2023-02-02T01:45:24.797Z,100654.47
2023-02-02T01:46:29.324Z,100669.59
2023-02-02T01:47:34.116Z,100663.84
2023-02-02T01:48:36.936Z,100656.84
2023-02-02T01:49:39.754Z,100652.09
2023-02-02T01:50:42.515Z,100647.78
2023-02-02T01:51:51.720Z,100643.34
2023-02-02T01:52:56.805Z,100653.25
2023-02-02T01:53:59.467Z,100657.19
2023-02-02T01:55:08.234Z,100654.75
2023-02-02T01:56:12.772Z,100662.78
2023-02-02T01:57:18.144Z,100668.34
2023-02-02T01:58:23.365Z,100661.41
2023-02-02T01:59:26.424Z,100658.09
2023-02-02T02:00:29.552Z,100653.50
2023-02-02T02:01:32.194Z,100669.28
2023-02-02T02:02:34.311Z,100668.22
2023-02-02T02:03:38.434Z,100656.03
2023-02-02T02:04:40.803Z,100658.66
2023-02-02T02:05:45.936Z,100669.81
2023-02-02T02:06:48.262Z,100658.19
2023-02-02T02:07:51.245Z,100646.53
2023-02-02T02:08:56.201Z,100652.84
2023-02-02T02:09:58.855Z,100647.09
2023-02-02T02:11:00.531Z,100650.09
2023-02-02T02:12:03.200Z,100647.06
2023-02-02T02:13:05.579Z,100647.53
2023-02-02T02:14:27.778Z,100647.19
2023-02-02T02:16:01.115Z,100638.06
2023-02-02T02:17:19.749Z,100635.56
2023-02-02T02:18:28.757Z,100651.38
2023-02-02T02:20:21.884Z,100648.09
2023-02-02T02:21:58.991Z,100644.19
2023-02-02T02:23:36.825Z,100640.25
2023-02-02T02:25:29.134Z,100632.31
2023-02-02T02:27:10.321Z,100645.72
2023-02-02T02:28:48.084Z,100630.56
2023-02-02T02:30:11.725Z,100637.31
2023-02-02T02:31:48.254Z,100646.69
2023-02-02T02:32:52.151Z,100650.41
2023-02-02T02:33:57.777Z,100637.88
2023-02-02T02:35:04.509Z,100653.53
2023-02-02T02:36:13.843Z,100662.00
2023-02-02T02:37:20.598Z,100644.09
2023-02-02T02:38:27.068Z,100633.78
2023-02-02T02:39:34.289Z,100637.16
2023-02-02T02:40:39.215Z,100643.97
2023-02-02T02:41:44.581Z,100645.50
2023-02-02T02:42:51.126Z,100649.78
2023-02-02T02:43:56.676Z,100649.72
2023-02-02T02:45:01.821Z,100646.69
2023-02-02T02:46:04.396Z,100651.97
2023-02-02T02:47:08.576Z,100650.09
2023-02-02T02:48:10.968Z,100656.22
2023-02-02T02:49:14.189Z,100656.72
2023-02-02T02:50:16.365Z,100652.47
2023-02-02T02:51:42.543Z,100651.50
2023-02-02T02:52:46.267Z,100664.72
2023-02-02T02:53:47.928Z,100644.31
2023-02-02T02:54:51.693Z,100645.19
2023-02-02T02:55:57.555Z,100652.13
2023-02-02T02:57:23.473Z,100649.25
2023-02-02T02:58:35.494Z,100654.84
2023-02-02T02:59:43.946Z,100641.09
2023-02-02T03:00:49.957Z,100645.19
2023-02-02T03:01:55.846Z,100639.41
2023-02-02T03:03:07.218Z,100635.03
2023-02-02T03:04:12.945Z,100630.94
2023-02-02T03:05:31.530Z,100641.81
2023-02-02T03:06:38.714Z,100633.97
2023-02-02T03:07:44.600Z,100628.84
2023-02-02T03:08:49.070Z,100628.16
2023-02-02T03:09:53.019Z,100642.63
2023-02-02T03:10:55.829Z,100634.97
2023-02-02T03:11:59.699Z,100634.97
2023-02-02T03:13:01.825Z,100639.94
2023-02-02T03:14:07.598Z,100636.56
2023-02-02T03:15:09.864Z,100637.56
2023-02-02T03:16:12.778Z,100637.56
2023-02-02T03:17:14.542Z,100641.34
2023-02-02T03:18:20.026Z,100643.88
2023-02-02T03:19:21.863Z,100634.69
2023-02-02T03:20:24.536Z,100644.25
2023-02-02T03:21:26.256Z,100649.31
2023-02-02T03:22:28.912Z,100645.06
2023-02-02T03:23:30.804Z,100643.94
2023-02-02T03:24:33.501Z,100635.91
2023-02-02T03:25:35.206Z,100643.06
2023-02-02T03:26:38.609Z,100644.94
2023-02-02T03:27:40.553Z,100648.53
2023-02-02T03:28:43.272Z,100656.69
2023-02-02T03:29:44.972Z,100650.91
2023-02-02T03:30:47.994Z,100649.19
2023-02-02T03:31:50.178Z,100641.38
2023-02-02T03:32:53.343Z,100647.84
2023-02-02T03:33:56.850Z,100661.81
2023-02-02T03:34:59.516Z,100646.09
2023-02-02T03:36:01.272Z,100640.00
2023-02-02T03:37:03.913Z,100642.00
2023-02-02T03:38:05.661Z,100642.75
2023-02-02T03:39:08.357Z,100647.31
2023-02-02T03:40:11.355Z,100651.38
2023-02-02T03:41:14.040Z,100652.97
2023-02-02T03:42:15.778Z,100642.91
2023-02-02T03:43:21.709Z,100659.44
2023-02-02T03:44:23.511Z,100650.13
2023-02-02T03:45:28.312Z,100645.50
2023-02-02T03:46:30.115Z,100651.31
2023-02-02T03:47:33.062Z,100649.63
2023-02-02T03:48:35.709Z,100652.97
2023-02-02T03:49:39.716Z,100652.47
2023-02-02T03:50:41.584Z,100658.09
2023-02-02T03:51:44.326Z,100656.56
2023-02-02T03:52:45.988Z,100654.50
2023-02-02T03:53:48.764Z,100644.47
2023-02-02T03:54:50.664Z,100645.50
2023-02-02T03:55:53.380Z,100650.13
2023-02-02T03:56:55.047Z,100666.28
2023-02-02T03:57:57.780Z,100632.22
2023-02-02T03:58:59.513Z,100646.69
2023-02-02T04:00:02.162Z,100639.69
2023-02-02T04:01:04.639Z,100635.16
2023-02-02T04:02:08.038Z,100642.13
2023-02-02T04:03:09.813Z,100643.09
2023-02-02T04:04:12.567Z,100655.50
2023-02-02T04:05:15.852Z,100618.88
2023-02-02T04:06:20.222Z,100651.75
2023-02-02T04:07:21.960Z,100638.75
2023-02-02T04:08:24.873Z,100663.63
2023-02-02T04:09:26.587Z,100640.84
2023-02-02T04:10:29.392Z,100642.59
2023-02-02T04:11:31.066Z,100650.25
2023-02-02T04:12:33.790Z,100648.06
2023-02-02T04:13:35.477Z,100643.63
2023-02-02T04:14:38.128Z,100645.00
2023-02-02T04:15:40.560Z,100644.31
2023-02-02T04:16:43.229Z,100666.22
2023-02-02T04:17:44.961Z,100643.22
2023-02-02T04:18:47.736Z,100645.47
2023-02-02T04:19:49.466Z,100664.13
2023-02-02T04:20:57.449Z,100668.72
2023-02-02T04:21:59.197Z,100669.09
2023-02-02T04:23:01.915Z,100661.25
2023-02-02T04:24:04.066Z,100676.66
2023-02-02T04:25:07.535Z,100668.88
2023-02-02T04:26:09.351Z,100680.47
2023-02-02T04:27:12.053Z,100672.19
2023-02-02T04:28:13.711Z,100666.16
2023-02-02T04:29:16.681Z,100668.88
2023-02-02T04:30:19.982Z,100672.94
2023-02-02T04:31:22.690Z,100669.34
2023-02-02T04:32:24.437Z,100665.50
2023-02-02T04:33:28.015Z,100681.69
2023-02-02T04:34:29.689Z,100685.09
2023-02-02T04:35:32.490Z,100666.09
2023-02-02T04:36:36.641Z,100679.72
2023-02-02T04:37:38.392Z,100679.72
2023-02-02T04:38:41.075Z,100676.78
2023-02-02T04:39:42.811Z,100674.63
2023-02-02T04:40:47.657Z,100679.75
2023-02-02T04:41:49.381Z,100665.63
2023-02-02T04:42:52.054Z,100687.19
2023-02-02T04:43:53.807Z,100684.66
2023-02-02T04:44:56.531Z,100677.16
2023-02-02T04:45:58.326Z,100681.97
2023-02-02T04:47:01.020Z,100673.28
2023-02-02T04:48:03.151Z,100679.41
2023-02-02T04:49:05.803Z,100698.81
2023-02-02T04:50:08.464Z,100696.59
2023-02-02T04:51:12.773Z,100688.66
2023-02-02T04:52:15.828Z,100692.56
2023-02-02T04:53:18.549Z,100701.91
2023-02-02T04:54:20.377Z,100693.69
2023-02-02T04:55:23.732Z,100692.50
2023-02-02T04:56:25.780Z,100696.06
2023-02-02T04:57:28.556Z,100694.63
2023-02-02T04:58:30.295Z,100693.63
2023-02-02T04:59:32.961Z,100697.69
2023-02-02T05:00:34.659Z,100698.00
2023-02-02T05:01:37.312Z,100698.66
2023-02-02T05:02:39.556Z,100704.91
2023-02-02T05:03:42.501Z,100698.31
2023-02-02T05:04:44.215Z,100705.97
2023-02-02T05:05:46.957Z,100703.53
2023-02-02T05:06:48.622Z,100705.16
2023-02-02T05:07:52.633Z,100702.91
2023-02-02T05:08:54.303Z,100705.78
2023-02-02T05:09:56.995Z,100697.84
2023-02-02T05:10:58.692Z,100696.66
2023-02-02T05:12:01.353Z,100702.81
2023-02-02T05:13:03.233Z,100700.72
2023-02-02T05:14:06.117Z,100698.91
2023-02-02T05:15:08.961Z,100711.13
2023-02-02T05:16:12.040Z,100711.69
2023-02-02T05:17:13.892Z,100708.41
2023-02-02T05:18:16.604Z,100704.84
2023-02-02T05:19:18.287Z,100708.41
2023-02-02T05:20:20.989Z,100707.34
2023-02-02T05:21:23.041Z,100704.69
2023-02-02T05:22:25.899Z,100701.47
2023-02-02T05:23:29.685Z,100706.75
2023-02-02T05:24:32.471Z,100706.97
2023-02-02T05:25:34.193Z,100722.63
2023-02-02T05:26:36.853Z,100705.06
2023-02-02T05:27:38.561Z,100715.44
2023-02-02T05:28:42.829Z,100712.59
2023-02-02T05:29:44.540Z,100719.59
2023-02-02T05:30:47.213Z,100717.03
2023-02-02T05:31:48.976Z,100716.31
2023-02-02T05:32:51.633Z,100715.81
2023-02-02T05:33:53.312Z,100719.88
2023-02-02T05:34:56.207Z,100720.03
2023-02-02T05:35:58.033Z,100720.91
2023-02-02T05:37:00.702Z,100722.63
2023-02-02T05:38:02.442Z,100722.78
2023-02-02T05:39:06.519Z,100724.81
2023-02-02T05:40:09.606Z,100730.75
2023-02-02T05:41:12.283Z,100732.63
2023-02-02T05:42:13.971Z,100720.88
2023-02-02T05:43:16.670Z,100723.75
2023-02-02T05:44:18.318Z,100718.63
2023-02-02T05:45:21.047Z,100725.88
2023-02-02T05:46:22.790Z,100725.34
2023-02-02T05:47:25.461Z,100723.97
2023-02-02T05:48:27.397Z,100722.47
2023-02-02T05:49:30.336Z,100719.38
2023-02-02T05:50:32.250Z,100721.22
2023-02-02T05:51:38.336Z,100719.03
2023-02-02T05:52:41.037Z,100718.03
2023-02-02T05:53:44.971Z,100722.13
2023-02-02T05:54:48.365Z,100731.81
2023-02-02T05:55:51.077Z,100731.63
2023-02-02T05:56:55.837Z,100719.81
2023-02-02T05:57:58.606Z,100727.75
2023-02-02T05:59:00.339Z,100728.28
2023-02-02T06:00:03.439Z,100735.47
2023-02-02T06:01:05.365Z,100726.50
2023-02-02T06:02:08.065Z,100731.28
2023-02-02T06:03:09.899Z,100727.19
2023-02-02T06:04:12.721Z,100738.00
2023-02-02T06:05:14.540Z,100737.53
2023-02-02T06:06:17.234Z,100713.69
2023-02-02T06:07:18.988Z,100750.66
2023-02-02T06:08:21.728Z,100722.69
2023-02-02T06:09:23.854Z,100737.84
2023-02-02T06:10:27.904Z,100728.16
2023-02-02T06:11:29.870Z,100727.31
2023-02-02T06:12:32.705Z,100732.97
2023-02-02T06:13:35.480Z,100716.16
2023-02-02T06:14:38.173Z,100721.72
2023-02-02T06:15:43.042Z,100723.97
2023-02-02T06:16:45.831Z,100729.88
2023-02-02T06:17:47.516Z,100720.56
2023-02-02T06:18:50.285Z,100740.81
2023-02-02T06:19:51.962Z,100735.84
2023-02-02T06:20:58.279Z,100741.16
2023-02-02T06:22:00.963Z,100741.63
2023-02-02T06:23:03.199Z,100739.44
2023-02-02T06:24:06.447Z,100742.50
2023-02-02T06:25:08.743Z,100741.63
2023-02-02T06:26:12.965Z,100734.22
2023-02-02T06:27:14.677Z,100739.31
2023-02-02T06:28:17.464Z,100741.50
2023-02-02T06:29:19.143Z,100758.78
2023-02-02T06:30:23.177Z,100731.88
2023-02-02T06:31:25.076Z,100726.13
2023-02-02T06:32:30.141Z,100737.69
2023-02-02T06:33:31.914Z,100740.78
2023-02-02T06:34:34.586Z,100726.53
2023-02-02T06:35:36.398Z,100745.44
2023-02-02T06:36:39.100Z,100743.84
2023-02-02T06:37:42.066Z,100740.00
2023-02-02T06:38:45.091Z,100765.66
2023-02-02T06:39:46.890Z,100737.91
2023-02-02T06:40:49.521Z,100736.72
2023-02-02T06:41:53.574Z,100732.13
2023-02-02T06:42:58.501Z,100730.63
2023-02-02T06:44:01.568Z,100749.47
2023-02-02T06:45:03.405Z,100740.75
2023-02-02T06:46:06.172Z,100720.72
2023-02-02T06:47:07.940Z,100740.03
2023-02-02T06:48:11.002Z,100728.50
2023-02-02T06:49:12.799Z,100731.56
2023-02-02T06:50:15.822Z,100754.25
2023-02-02T06:51:17.568Z,100730.47
2023-02-02T06:52:20.347Z,100740.81
2023-02-02T06:53:23.270Z,100748.94
2023-02-02T06:54:26.083Z,100760.47
2023-02-02T06:55:27.870Z,100735.81
2023-02-02T06:56:30.795Z,100744.88
2023-02-02T06:57:33.928Z,100745.75
2023-02-02T06:58:36.727Z,100749.06
2023-02-02T06:59:38.532Z,100746.38
2023-02-02T07:00:42.019Z,100748.44
2023-02-02T07:01:44.747Z,100740.63
2023-02-02T07:02:46.932Z,100734.47
2023-02-02T07:03:51.096Z,100741.25
2023-02-02T07:04:53.868Z,100757.13
2023-02-02T07:05:55.861Z,100750.41
2023-02-02T07:06:58.548Z,100743.63
2023-02-02T07:08:00.255Z,100739.03
2023-02-02T07:09:03.565Z,100728.47
2023-02-02T07:10:05.878Z,100734.59
2023-02-02T07:11:15.099Z,100730.91
2023-02-02T07:12:19.671Z,100730.59
2023-02-02T07:13:23.107Z,100730.78
2023-02-02T07:14:25.944Z,100735.84
2023-02-02T07:15:27.638Z,100750.72
2023-02-02T07:16:30.487Z,100735.34
2023-02-02T07:17:32.198Z,100728.16
2023-02-02T07:18:36.781Z,100742.88
2023-02-02T07:19:38.476Z,100734.97
2023-02-02T07:20:41.227Z,100724.31
2023-02-02T07:21:43.091Z,100739.13
2023-02-02T07:22:45.761Z,100744.69
2023-02-02T07:23:47.648Z,100757.13
2023-02-02T07:24:50.372Z,100720.25
2023-02-02T07:26:00.510Z,100758.03
2023-02-02T07:27:03.239Z,100743.41
2023-02-02T07:28:05.106Z,100770.69
2023-02-02T07:29:10.592Z,100741.16
2023-02-02T07:30:12.961Z,100731.41
2023-02-02T07:31:17.046Z,100746.97
2023-02-02T07:32:19.882Z,100742.53
2023-02-02T07:33:21.597Z,100740.94
2023-02-02T07:34:24.915Z,100745.03
2023-02-02T07:35:26.861Z,100737.91
2023-02-02T07:36:29.721Z,100749.84
2023-02-02T07:37:31.520Z,100744.78
2023-02-02T07:38:34.198Z,100746.56
2023-02-02T07:39:36.832Z,100791.19
2023-02-02T07:40:38.492Z,100791.00
2023-02-02T07:41:41.369Z,100769.03
2023-02-02T07:42:44.953Z,100765.25
2023-02-02T07:43:50.880Z,100766.81
2023-02-02T07:44:53.896Z,100780.03
2023-02-02T07:46:02.105Z,100780.03
2023-02-02T07:47:05.041Z,100760.72
2023-02-02T07:48:06.906Z,100766.91
2023-02-02T07:49:13.366Z,100767.59
2023-02-02T07:50:15.241Z,100763.13
2023-02-02T07:51:19.331Z,100780.66
2023-02-02T07:52:21.195Z,100781.44
2023-02-02T07:53:23.894Z,100764.78
2023-02-02T07:54:26.647Z,100766.84
2023-02-02T07:55:28.699Z,100768.78
2023-02-02T07:56:31.551Z,100786.00
2023-02-02T07:57:34.456Z,100783.72
2023-02-02T07:58:36.296Z,100771.38
2023-02-02T07:59:41.429Z,100771.16
2023-02-02T08:00:44.596Z,100780.81
2023-02-02T08:01:47.647Z,100776.22
2023-02-02T08:02:49.499Z,100782.34
2023-02-02T08:03:53.502Z,100789.34
2023-02-02T08:04:55.302Z,100781.56
2023-02-02T08:05:58.719Z,100782.41
2023-02-02T08:07:01.873Z,100804.38
2023-02-02T08:08:04.965Z,100800.91
2023-02-02T08:09:09.312Z,100799.50
2023-02-02T08:10:11.865Z,100785.94
2023-02-02T08:11:15.897Z,100790.03
2023-02-02T08:12:18.976Z,100776.09
2023-02-02T08:13:22.916Z,100792.72
2023-02-02T08:14:25.814Z,100838.50
2023-02-02T08:15:27.793Z,100773.31
2023-02-02T08:16:33.590Z,100772.53
2023-02-02T08:17:37.460Z,100796.19
2023-02-02T08:18:40.241Z,100795.34
2023-02-02T08:19:42.972Z,100796.19
2023-02-02T08:20:44.700Z,100789.75
2023-02-02T08:21:47.481Z,100791.13
2023-02-02T08:22:49.456Z,100776.28
2023-02-02T08:23:53.474Z,100805.97
2023-02-02T08:24:56.273Z,100783.66
2023-02-02T08:26:07.116Z,100778.09
2023-02-02T08:27:10.402Z,100799.00
2023-02-02T08:28:12.120Z,100801.38
2023-02-02T08:29:17.217Z,100788.25
2023-02-02T08:30:20.269Z,100786.22
2023-02-02T08:31:25.248Z,100793.91
2023-02-02T08:32:29.447Z,100793.06
2023-02-02T08:33:31.247Z,100794.59
2023-02-02T08:34:36.827Z,100787.75
2023-02-02T08:35:41.327Z,100809.09
2023-02-02T08:36:44.068Z,100789.53
2023-02-02T08:37:48.824Z,100798.09
2023-02-02T08:38:51.003Z,100799.63
2023-02-02T08:39:53.779Z,100789.63
2023-02-02T08:40:55.553Z,100798.69
2023-02-02T08:41:58.507Z,100796.09
2023-02-02T08:43:00.380Z,100803.16
2023-02-02T08:44:06.109Z,100806.59
2023-02-02T08:46:02.509Z,100808.47
2023-02-02T08:46:32.460Z,100810.81
2023-02-02T08:47:35.581Z,100811.81
2023-02-02T08:48:39.000Z,100816.69
2023-02-02T08:49:42.496Z,100814.13
2023-02-02T08:50:45.202Z,100812.47
2023-02-02T08:51:47.971Z,100818.56
2023-02-02T08:52:49.721Z,100809.59
2023-02-02T08:53:52.456Z,100797.97
2023-02-02T08:54:55.210Z,100804.69
2023-02-02T08:56:01.468Z,100827.66
2023-02-02T08:57:04.361Z,100820.47
2023-02-02T08:58:06.166Z,100808.44
2023-02-02T08:59:08.899Z,100816.31
2023-02-02T09:00:12.916Z,100813.94
2023-02-02T09:01:16.559Z,100816.88
2023-02-02T09:02:19.458Z,100817.16
2023-02-02T09:03:23.580Z,100812.91
2023-02-02T09:04:26.279Z,100822.25
2023-02-02T09:05:28.103Z,100816.88
2023-02-02T09:06:33.642Z,100820.50
2023-02-02T09:07:36.499Z,100823.06
2023-02-02T09:08:39.615Z,100812.44
2023-02-02T09:09:42.343Z,100825.34
2023-02-02T09:10:44.061Z,100816.13
2023-02-02T09:11:47.202Z,100826.06
2023-02-02T09:12:48.941Z,100810.91
2023-02-02T09:13:55.245Z,100826.66
2023-02-02T09:14:57.962Z,100808.22
2023-02-02T09:16:00.807Z,100806.53
2023-02-02T09:17:03.562Z,100815.59
2023-02-02T09:18:06.472Z,100817.03
2023-02-02T09:19:11.500Z,100821.50
2023-02-02T09:20:13.341Z,100813.16
2023-02-02T09:21:20.066Z,100811.09
2023-02-02T09:22:21.966Z,100820.47
2023-02-02T09:23:25.920Z,100823.03
2023-02-02T09:24:28.935Z,100826.81
2023-02-02T09:25:30.667Z,100856.34
2023-02-02T09:26:33.406Z,100867.38
2023-02-02T09:27:38.491Z,100822.06
2023-02-02T09:28:43.001Z,100842.53
2023-02-02T09:29:45.712Z,100817.44
2023-02-02T09:30:47.439Z,100831.41
2023-02-02T09:31:50.222Z,100826.81
2023-02-02T09:32:52.037Z,100826.16
2023-02-02T09:33:54.781Z,100824.16
2023-02-02T09:35:00.392Z,100833.22
2023-02-02T09:36:06.665Z,100819.22
2023-02-02T09:37:09.476Z,100829.63
2023-02-02T09:38:11.127Z,100838.50
2023-02-02T09:39:15.103Z,100816.31
2023-02-02T09:40:18.846Z,100834.56
2023-02-02T09:41:52.289Z,100829.25
2023-02-02T09:43:08.086Z,100835.56
2023-02-02T09:44:18.081Z,100828.22
2023-02-02T09:45:27.651Z,100841.53
2023-02-02T09:46:38.890Z,100826.19
2023-02-02T09:47:57.142Z,100833.00
2023-02-02T09:49:02.609Z,100836.44
2023-02-02T09:50:14.125Z,100829.91
2023-02-02T09:51:19.901Z,100834.16
2023-02-02T09:52:25.914Z,100846.47
2023-02-02T09:53:38.456Z,100835.91
2023-02-02T09:54:48.040Z,100845.59
2023-02-02T09:55:52.837Z,100838.44
2023-02-02T09:56:57.579Z,100851.25
2023-02-02T09:58:05.164Z,100878.88
2023-02-02T09:59:19.926Z,100845.06
2023-02-02T10:00:29.200Z,100848.84
2023-02-02T10:01:35.230Z,100866.09
2023-02-02T10:02:41.561Z,100870.88
2023-02-02T10:03:49.921Z,100873.97
2023-02-02T10:04:54.926Z,100866.09
2023-02-02T10:06:04.467Z,100883.50
2023-02-02T10:07:08.719Z,100868.19
2023-02-02T10:08:25.961Z,100875.06
2023-02-02T10:09:42.022Z,100875.72
2023-02-02T10:10:46.017Z,100871.69
2023-02-02T10:11:52.780Z,100884.47
2023-02-02T10:12:58.280Z,100872.53
2023-02-02T10:14:03.253Z,100868.59
2023-02-02T10:15:14.098Z,100868.88
2023-02-02T10:16:18.084Z,100872.28
2023-02-02T10:17:36.298Z,100894.69
2023-02-02T10:18:44.677Z,100884.56
2023-02-02T10:19:47.295Z,100883.91
2023-02-02T10:20:52.819Z,100874.72
2023-02-02T10:22:03.372Z,100876.94
2023-02-02T10:23:12.201Z,100901.16
2023-02-02T10:24:18.692Z,100878.31
2023-02-02T10:25:24.309Z,100889.78
2023-02-02T10:26:32.189Z,100889.78
2023-02-02T10:27:38.620Z,100897.63
2023-02-02T10:28:44.509Z,100908.03
2023-02-02T10:29:51.249Z,100893.16
2023-02-02T10:30:59.792Z,100883.09
2023-02-02T10:32:10.712Z,100891.50
2023-02-02T10:33:20.830Z,100890.84
2023-02-02T10:34:27.131Z,100885.06
2023-02-02T10:35:37.233Z,100892.75
2023-02-02T10:36:48.096Z,100891.19
2023-02-02T10:37:57.026Z,100893.25
2023-02-02T10:39:03.859Z,100888.44
2023-02-02T10:40:16.994Z,100885.56
2023-02-02T10:41:26.561Z,100899.22
2023-02-02T10:42:35.702Z,100893.91
2023-02-02T10:43:57.447Z,100883.63
2023-02-02T10:45:01.753Z,100885.84
2023-02-02T10:46:04.594Z,100900.72
2023-02-02T10:47:10.759Z,100898.16
2023-02-02T10:48:15.883Z,100893.06
2023-02-02T10:49:24.291Z,100899.00
2023-02-02T10:50:28.058Z,100891.19
2023-02-02T10:51:31.173Z,100888.97
2023-02-02T10:52:36.938Z,100893.94
2023-02-02T10:53:41.404Z,100887.81
2023-02-02T10:54:57.218Z,100889.47
2023-02-02T10:56:05.816Z,100886.75
2023-02-02T10:57:10.555Z,100887.97
2023-02-02T10:58:22.134Z,100890.88
2023-02-02T10:59:28.909Z,100880.78
2023-02-02T11:00:35.078Z,100890.69
2023-02-02T11:01:37.885Z,100885.06
2023-02-02T11:02:40.587Z,100877.38
2023-02-02T11:03:46.056Z,100905.91
2023-02-02T11:05:06.542Z,100903.66
2023-02-02T11:06:27.167Z,100878.91
2023-02-02T11:07:28.876Z,100885.25
2023-02-02T11:08:34.238Z,100899.41
2023-02-02T11:09:41.553Z,100893.75
2023-02-02T11:10:44.953Z,100911.00
2023-02-02T11:11:52.014Z,100890.03
2023-02-02T11:12:57.084Z,100888.66
2023-02-02T11:14:02.867Z,100901.47
2023-02-02T11:15:06.516Z,100893.09
2023-02-02T11:16:38.766Z,100909.50
2023-02-02T11:17:45.054Z,100893.94
2023-02-02T11:18:47.059Z,100886.59
2023-02-02T11:19:50.821Z,100895.81
2023-02-02T11:20:53.627Z,100897.69
2023-02-02T11:21:56.746Z,100901.78
2023-02-02T11:23:03.496Z,100909.66
2023-02-02T11:24:07.998Z,100897.50
2023-02-02T11:25:26.416Z,100903.00
2023-02-02T11:26:42.400Z,100889.50
2023-02-02T11:27:46.631Z,100888.13
2023-02-02T11:28:49.302Z,100885.06
2023-02-02T11:29:53.280Z,100881.31
2023-02-02T11:30:55.234Z,100890.69
2023-02-02T11:32:02.278Z,100896.00
2023-02-02T11:33:21.502Z,100884.91
2023-02-02T11:34:24.400Z,100889.31
2023-02-02T11:35:29.699Z,100876.00
2023-02-02T11:36:31.440Z,100883.34
2023-02-02T11:37:35.344Z,100885.91
2023-02-02T11:38:38.020Z,100906.94
2023-02-02T11:39:40.354Z,100888.31
2023-02-02T11:40:45.710Z,100905.03
2023-02-02T11:41:47.552Z,100897.50
2023-02-02T11:42:51.269Z,100882.63
2023-02-02T11:43:55.330Z,100889.50
2023-02-02T11:44:59.101Z,100880.09
2023-02-02T11:46:03.512Z,100892.22
2023-02-02T11:47:06.471Z,100891.53
2023-02-02T11:48:15.569Z,100890.34
2023-02-02T11:49:20.078Z,100881.97
2023-02-02T11:50:25.409Z,100883.34
2023-02-02T11:51:29.329Z,100892.22
2023-02-02T11:52:32.902Z,100895.97
2023-02-02T11:53:37.415Z,100916.63
2023-02-02T11:54:40.152Z,100880.97
2023-02-02T11:55:45.259Z,100891.19
2023-02-02T11:56:50.687Z,100896.31
2023-02-02T11:58:24.905Z,100888.81
2023-02-02T11:59:30.256Z,100882.50
2023-02-02T12:00:32.359Z,100888.50
2023-02-02T12:01:39.615Z,100893.59
2023-02-02T12:02:46.859Z,100889.84
2023-02-02T12:03:50.142Z,100919.91
2023-02-02T12:04:53.300Z,100904.34
2023-02-02T12:05:56.177Z,100889.19
2023-02-02T12:06:57.901Z,100891.56
2023-02-02T12:08:01.033Z,100891.75
2023-02-02T12:09:12.263Z,100892.41
2023-02-02T12:10:18.361Z,100894.31
2023-02-02T12:11:34.283Z,100889.50
2023-02-02T12:12:41.969Z,100892.41
2023-02-02T12:13:53.027Z,100896.34
2023-02-02T12:14:59.585Z,100882.84
2023-02-02T12:16:10.565Z,100899.22
2023-02-02T12:17:23.301Z,100889.50
2023-02-02T12:18:38.148Z,100897.03
2023-02-02T12:20:01.378Z,100894.28